Pierceland, Canada
Current Conditions -  °F | °C
As of 4:00 AM on Friday 24 Oct 2014 (Local Time) from CYOD Reporting Station
Scattered Clouds Scattered Clouds  
Wind Chill: 35°   Ceiling: Unl
Heat Index: 41°   Visibility: 15mi
Dew Point: 32°   Wind: 10mph
Humidity: 70%   Direction: 250°WSW
Pressure: 29.54"   Gusts: NA
Location:  54.34°N, 109.78°W
Report Text: CYOD 241000Z 25009KT 15SM SCT038 05/00 A2954 RMK SC2 SLP015
Loading
Personal Weather Stations






























Interactive Weather Map
Tropical Storm Tracking
New forecast layout! Learn more

10-Day Weather Forecast

Advertisements
Track Severe Weather on mobile